Time;durP1;ratioP1;P1;durP2;ratioP2;P2;SDS_P1;SDS_P2;PMS_P1;PMS_P2;Temp;Humidity;BMP_temperature;BMP_pressure;BME280_temperature;BME280_humidity;BME280_pressure;Samples;Min_cycle;Max_cycle;Signal;HPM_P1;HPM_P2
2023/04/07 14:04:13;;;;;;;0.30;0.30;;;;;;;;;;7389423;19;20492;-92
2023/04/07 14:06:40;;;;;;;0.30;0.30;;;;;;;;;;7389569;19;20177;-90
2023/04/07 14:09:07;;;;;;;0.30;0.30;;;;;;;;;;7384675;19;20129;-91
2023/04/07 14:11:33;;;;;;;0.20;0.20;;;;;;;;;;7391949;19;20163;-92
2023/04/07 14:14:00;;;;;;;1.33;0.50;;;;;;;;;;7389489;19;20152;-89
2023/04/07 14:16:27;;;;;;;0.30;0.30;;;;;;;;;;7395921;19;20137;-89
2023/04/07 14:18:54;;;;;;;0.20;0.20;;;;;;;;;;7394438;19;20137;-89
2023/04/07 14:21:21;;;;;;;0.30;0.30;;;;;;;;;;7392711;19;20158;-89
2023/04/07 14:23:48;;;;;;;0.47;0.47;;;;;;;;;;7391893;19;20183;-89
2023/04/07 14:26:15;;;;;;;0.30;0.30;;;;;;;;;;7389217;19;20129;-89
2023/04/07 14:28:41;;;;;;;0.30;0.30;;;;;;;;;;7390926;19;20181;-89
2023/04/07 14:31:13;;;;;;;0.30;0.30;;;;;;;;;;7391458;19;20137;-90
2023/04/07 14:33:44;;;;;;;0.30;0.30;;;;;;;;;;7394785;19;20638;-89
2023/04/07 14:36:13;;;;;;;0.40;0.40;;;;;;;;;;7402612;19;20141;-89
2023/04/07 14:38:40;;;;;;;0.30;0.30;;;;;;;;;;7403517;19;20633;-89
2023/04/07 14:41:08;;;;;;;0.40;0.40;;;;;;;;;;7402690;19;20517;-88
2023/04/07 14:43:35;;;;;;;0.27;0.27;;;;;;;;;;7398741;19;20197;-89
2023/04/07 14:46:02;;;;;;;0.50;0.50;;;;;;;;;;7392396;19;20153;-90
2023/04/07 14:48:29;;;;;;;0.87;0.50;;;;;;;;;;7402279;19;20137;-90
2023/04/07 14:50:55;;;;;;;0.30;0.30;;;;;;;;;;7400253;19;20226;-89
2023/04/07 14:54:13;;;;;;;0.50;0.50;;;;;;;;;;7395692;19;20164;-87
2023/04/07 14:56:40;;;;;;;0.30;0.30;;;;;;;;;;7418305;19;20133;-88
2023/04/07 14:59:07;;;;;;;0.20;0.20;;;;;;;;;;7428518;19;20133;-89
2023/04/07 15:01:33;;;;;;;0.33;0.33;;;;;;;;;;7429851;19;20141;-88
2023/04/07 15:04:00;;;;;;;0.30;0.30;;;;;;;;;;7405971;19;20161;-89
2023/04/07 15:06:27;;;;;;;0.30;0.30;;;;;;;;;;7396489;19;20177;-88
2023/04/07 15:08:54;;;;;;;0.30;0.30;;;;;;;;;;7402917;19;20151;-89
2023/04/07 15:11:20;;;;;;;0.43;0.43;;;;;;;;;;7396865;19;20145;-90
2023/04/07 15:13:47;;;;;;;0.27;0.27;;;;;;;;;;7396281;19;20176;-89
2023/04/07 15:16:14;;;;;;;0.33;0.33;;;;;;;;;;7397673;19;20144;-89
2023/04/07 15:18:43;;;;;;;0.30;0.30;;;;;;;;;;7395078;19;20141;-89
2023/04/07 15:21:11;;;;;;;0.30;0.30;;;;;;;;;;7398640;19;20137;-88
2023/04/07 15:23:39;;;;;;;0.37;0.37;;;;;;;;;;7399507;19;20149;-90
2023/04/07 15:26:06;;;;;;;0.40;0.40;;;;;;;;;;7397716;19;20153;-89
2023/04/07 15:28:33;;;;;;;0.20;0.20;;;;;;;;;;7390158;19;20137;-90
2023/04/07 15:31:00;;;;;;;0.37;0.37;;;;;;;;;;7400495;19;20137;-89
2023/04/07 15:33:26;;;;;;;0.30;0.30;;;;;;;;;;7396487;19;20625;-89
2023/04/07 15:35:53;;;;;;;0.20;0.20;;;;;;;;;;7399475;19;20162;-88
2023/04/07 15:38:20;;;;;;;0.30;0.30;;;;;;;;;;7395640;19;20466;-90
2023/04/07 15:40:47;;;;;;;0.30;0.30;;;;;;;;;;7400038;19;20133;-89
2023/04/07 15:43:13;;;;;;;0.30;0.30;;;;;;;;;;7396743;19;20158;-90
2023/04/07 15:45:41;;;;;;;0.30;0.30;;;;;;;;;;7396512;19;20143;-90
2023/04/07 15:48:09;;;;;;;0.30;0.30;;;;;;;;;;7399195;19;20148;-91
2023/04/07 15:50:36;;;;;;;0.53;0.53;;;;;;;;;;7399140;19;20161;-89
2023/04/07 15:53:06;;;;;;;0.20;0.20;;;;;;;;;;7396138;19;20133;-90
2023/04/07 15:55:33;;;;;;;0.20;0.20;;;;;;;;;;7399444;19;20137;-89
2023/04/07 15:58:00;;;;;;;0.30;0.30;;;;;;;;;;7394655;19;20144;-87
2023/04/07 16:00:28;;;;;;;0.30;0.30;;;;;;;;;;7394378;19;20635;-89
2023/04/07 16:02:55;;;;;;;0.20;0.20;;;;;;;;;;7397927;19;20121;-90
2023/04/07 16:05:22;;;;;;;0.30;0.30;;;;;;;;;;7392774;19;20172;-90
2023/04/07 16:07:48;;;;;;;0.30;0.30;;;;;;;;;;7399013;19;20173;-91
2023/04/07 16:10:18;;;;;;;0.20;0.20;;;;;;;;;;7398840;19;20174;-90
2023/04/07 16:12:46;;;;;;;0.20;0.20;;;;;;;;;;7393068;19;20141;-90
2023/04/07 16:15:13;;;;;;;0.20;0.20;;;;;;;;;;7396223;19;20177;-90
2023/04/07 16:17:51;;;;;;;0.23;0.23;;;;;;;;;;7395922;19;20145;-91
2023/04/07 16:20:18;;;;;;;0.20;0.20;;;;;;;;;;7397961;19;20136;-90
2023/04/07 16:22:46;;;;;;;0.30;0.30;;;;;;;;;;7398740;19;20140;-89
2023/04/07 16:25:14;;;;;;;0.20;0.20;;;;;;;;;;7395519;19;20176;-90
2023/04/07 16:27:43;;;;;;;0.20;0.20;;;;;;;;;;7391650;19;20182;-90
2023/04/07 16:30:12;;;;;;;0.30;0.30;;;;;;;;;;7395159;19;20521;-91
2023/04/07 16:32:42;;;;;;;0.20;0.20;;;;;;;;;;7394027;19;20151;-90
2023/04/07 16:35:10;;;;;;;0.40;0.40;;;;;;;;;;7395164;19;20168;-90
2023/04/07 16:37:37;;;;;;;0.20;0.20;;;;;;;;;;7394030;19;20417;-88
2023/04/07 16:40:05;;;;;;;0.60;0.60;;;;;;;;;;7386945;19;20133;-89
2023/04/07 16:42:32;;;;;;;0.20;0.20;;;;;;;;;;7386188;19;20129;-91
2023/04/07 16:45:00;;;;;;;0.30;0.30;;;;;;;;;;7388733;19;20168;-90
2023/04/07 16:47:28;;;;;;;0.20;0.20;;;;;;;;;;7395014;19;20188;-89
2023/04/07 16:49:55;;;;;;;0.30;0.30;;;;;;;;;;7395824;19;20125;-89
2023/04/07 16:52:22;;;;;;;0.20;0.20;;;;;;;;;;7406269;19;20125;-91
2023/04/07 16:54:49;;;;;;;0.23;0.23;;;;;;;;;;7425837;19;20197;-91
2023/04/07 16:57:16;;;;;;;0.20;0.20;;;;;;;;;;7429281;19;20157;-91
2023/04/07 16:59:42;;;;;;;0.20;0.20;;;;;;;;;;7427792;19;20129;-91
2023/04/07 17:02:11;;;;;;;0.23;0.23;;;;;;;;;;7425410;19;20165;-90
2023/04/07 17:04:39;;;;;;;0.37;0.37;;;;;;;;;;7427527;19;20201;-91
2023/04/07 17:07:06;;;;;;;0.20;0.20;;;;;;;;;;7428797;19;20137;-90
2023/04/07 17:09:33;;;;;;;0.20;0.20;;;;;;;;;;7410450;19;20651;-88
2023/04/07 17:12:00;;;;;;;0.30;0.30;;;;;;;;;;7399065;19;20171;-88
2023/04/07 17:14:27;;;;;;;0.20;0.20;;;;;;;;;;7395353;19;20189;-89
2023/04/07 17:16:54;;;;;;;0.30;0.30;;;;;;;;;;7398888;19;20141;-89
2023/04/07 17:19:21;;;;;;;0.20;0.20;;;;;;;;;;7397932;19;20144;-90
2023/04/07 17:21:48;;;;;;;0.70;0.30;;;;;;;;;;7396694;19;20153;-89
2023/04/07 17:24:15;;;;;;;0.50;0.50;;;;;;;;;;7394479;19;20637;-90
2023/04/07 17:26:45;;;;;;;0.50;0.50;;;;;;;;;;7396753;19;20117;-90
2023/04/07 17:29:12;;;;;;;0.30;0.30;;;;;;;;;;7396310;19;20137;-90
2023/04/07 17:31:39;;;;;;;0.20;0.20;;;;;;;;;;7397533;19;20193;-90
2023/04/07 17:34:06;;;;;;;0.30;0.30;;;;;;;;;;7393615;19;20195;-88
2023/04/07 17:36:33;;;;;;;0.40;0.40;;;;;;;;;;7386620;19;20129;-89
2023/04/07 17:39:00;;;;;;;0.20;0.20;;;;;;;;;;7396897;19;20140;-90
2023/04/07 17:41:27;;;;;;;0.63;0.63;;;;;;;;;;7393818;19;20141;-90
2023/04/07 17:43:54;;;;;;;0.20;0.20;;;;;;;;;;7394401;19;20172;-87
2023/04/07 17:46:21;;;;;;;0.20;0.20;;;;;;;;;;7392744;19;20133;-88
2023/04/07 17:48:53;;;;;;;0.23;0.23;;;;;;;;;;7393803;19;20137;-91
2023/04/07 17:51:19;;;;;;;0.63;0.63;;;;;;;;;;7395808;19;20551;-90
2023/04/07 17:53:46;;;;;;;0.60;0.60;;;;;;;;;;7388375;19;20149;-89
2023/04/07 17:56:13;;;;;;;0.40;0.40;;;;;;;;;;7392821;19;20148;-90
2023/04/07 17:58:40;;;;;;;0.20;0.20;;;;;;;;;;7397068;19;20161;-90
2023/04/07 18:01:09;;;;;;;0.20;0.20;;;;;;;;;;7393356;19;20505;-89
2023/04/07 18:03:37;;;;;;;0.20;0.20;;;;;;;;;;7395196;19;20618;-88
2023/04/07 18:06:05;;;;;;;0.27;0.27;;;;;;;;;;7394518;19;20136;-89
2023/04/07 18:08:31;;;;;;;0.20;0.20;;;;;;;;;;7394076;19;20585;-87
2023/04/07 18:10:58;;;;;;;0.20;0.20;;;;;;;;;;7394784;19;20499;-89
2023/04/07 18:13:25;;;;;;;0.30;0.30;;;;;;;;;;7390073;19;20153;-89
2023/04/07 18:15:51;;;;;;;0.50;0.50;;;;;;;;;;7390545;19;20141;-90
2023/04/07 18:18:19;;;;;;;0.20;0.20;;;;;;;;;;7388537;19;20133;-88
2023/04/07 18:20:45;;;;;;;0.50;0.50;;;;;;;;;;7389855;19;20162;-87
2023/04/07 18:23:12;;;;;;;0.20;0.20;;;;;;;;;;7395246;19;20149;-90
2023/04/07 18:25:39;;;;;;;0.20;0.20;;;;;;;;;;7393734;19;20548;-88
2023/04/07 18:28:05;;;;;;;0.57;0.57;;;;;;;;;;7397772;19;20166;-88
2023/04/07 18:30:32;;;;;;;0.20;0.20;;;;;;;;;;7417385;19;20128;-88
2023/04/07 18:32:59;;;;;;;1.17;1.07;;;;;;;;;;7409263;19;20179;-91
2023/04/07 18:35:25;;;;;;;0.40;0.40;;;;;;;;;;7400714;19;20140;-90
2023/04/07 18:37:52;;;;;;;0.20;0.20;;;;;;;;;;7395683;19;20140;-92
2023/04/07 18:40:19;;;;;;;0.20;0.20;;;;;;;;;;7386874;19;20161;-89
2023/04/07 18:42:46;;;;;;;0.23;0.23;;;;;;;;;;7373452;19;20140;-88
2023/04/07 18:45:12;;;;;;;0.20;0.20;;;;;;;;;;7375889;19;20185;-88
2023/04/07 18:47:39;;;;;;;0.40;0.40;;;;;;;;;;7387711;19;20141;-89
2023/04/07 18:50:06;;;;;;;0.20;0.20;;;;;;;;;;7389811;19;20149;-87
2023/04/07 18:52:33;;;;;;;0.20;0.20;;;;;;;;;;7387701;19;20152;-89
2023/04/07 18:54:59;;;;;;;0.20;0.20;;;;;;;;;;7384998;19;20169;-88
2023/04/07 18:57:26;;;;;;;0.20;0.20;;;;;;;;;;7392001;19;20178;-86
2023/04/07 18:59:52;;;;;;;0.20;0.20;;;;;;;;;;7392291;19;20539;-86
2023/04/07 19:02:19;;;;;;;0.20;0.20;;;;;;;;;;7395506;19;20141;-87
2023/04/07 19:04:46;;;;;;;0.20;0.20;;;;;;;;;;7391737;19;20657;-89
2023/04/07 19:07:13;;;;;;;0.20;0.20;;;;;;;;;;7397069;19;20141;-88
2023/04/07 19:09:39;;;;;;;0.20;0.20;;;;;;;;;;7397588;19;20166;-88
2023/04/07 19:12:06;;;;;;;0.20;0.20;;;;;;;;;;7397007;19;20141;-88
2023/04/07 19:14:33;;;;;;;0.20;0.20;;;;;;;;;;7395181;19;20661;-88
2023/04/07 19:17:00;;;;;;;0.33;0.33;;;;;;;;;;7395518;19;20158;-88
2023/04/07 19:19:27;;;;;;;0.20;0.20;;;;;;;;;;7397981;19;20157;-88
2023/04/07 19:21:53;;;;;;;0.20;0.20;;;;;;;;;;7406310;19;20165;-87
2023/04/07 19:24:20;;;;;;;0.20;0.20;;;;;;;;;;7403009;19;20157;-89
2023/04/07 19:26:47;;;;;;;0.20;0.20;;;;;;;;;;7404518;19;20137;-88
2023/04/07 19:29:13;;;;;;;0.20;0.20;;;;;;;;;;7405572;19;20133;-88
2023/04/07 19:31:40;;;;;;;0.20;0.20;;;;;;;;;;7404682;19;20161;-88
2023/04/07 19:34:06;;;;;;;0.20;0.20;;;;;;;;;;7396854;19;20181;-88
2023/04/07 19:36:33;;;;;;;0.20;0.20;;;;;;;;;;7405109;19;20612;-87
2023/04/07 19:39:00;;;;;;;0.20;0.20;;;;;;;;;;7406518;19;20141;-89
2023/04/07 19:41:28;;;;;;;0.30;0.30;;;;;;;;;;7403039;19;20169;-88
2023/04/07 19:43:54;;;;;;;0.20;0.20;;;;;;;;;;7403099;19;20161;-89
2023/04/07 19:46:21;;;;;;;0.20;0.20;;;;;;;;;;7403215;19;20140;-87
2023/04/07 19:48:48;;;;;;;0.20;0.20;;;;;;;;;;7404694;19;20230;-88
2023/04/07 19:51:15;;;;;;;0.20;0.20;;;;;;;;;;7407797;19;20169;-87
2023/04/07 19:53:42;;;;;;;0.20;0.20;;;;;;;;;;7409264;19;20197;-87
2023/04/07 19:56:09;;;;;;;0.20;0.20;;;;;;;;;;7409764;19;20141;-88
2023/04/07 19:58:37;;;;;;;1.53;1.43;;;;;;;;;;7409922;19;20125;-89
2023/04/07 20:01:03;;;;;;;0.20;0.20;;;;;;;;;;7407920;19;20137;-87
2023/04/07 20:03:30;;;;;;;0.20;0.20;;;;;;;;;;7402841;19;20217;-88
2023/04/07 20:05:58;;;;;;;0.20;0.20;;;;;;;;;;7396905;19;20163;-89
2023/04/07 20:08:25;;;;;;;0.20;0.20;;;;;;;;;;7399381;19;20141;-88
2023/04/07 20:10:52;;;;;;;0.20;0.20;;;;;;;;;;7398510;19;20484;-88
2023/04/07 20:13:19;;;;;;;0.20;0.20;;;;;;;;;;7398926;19;20173;-88
2023/04/07 20:15:47;;;;;;;0.20;0.20;;;;;;;;;;7401299;19;20157;-86
2023/04/07 20:18:17;;;;;;;0.30;0.30;;;;;;;;;;7400537;19;20157;-87
2023/04/07 20:20:44;;;;;;;0.83;0.83;;;;;;;;;;7403665;19;20141;-88
2023/04/07 20:23:11;;;;;;;0.27;0.27;;;;;;;;;;7400903;19;20141;-88
2023/04/07 20:25:38;;;;;;;0.20;0.20;;;;;;;;;;7403424;19;20141;-88
2023/04/07 20:28:05;;;;;;;0.20;0.20;;;;;;;;;;7400392;19;20175;-87
2023/04/07 20:30:31;;;;;;;0.20;0.20;;;;;;;;;;7402873;19;20554;-89
2023/04/07 20:32:58;;;;;;;0.20;0.20;;;;;;;;;;7401561;19;20150;-87
2023/04/07 20:35:24;;;;;;;0.23;0.23;;;;;;;;;;7401936;19;20141;-88
2023/04/07 20:37:51;;;;;;;0.20;0.20;;;;;;;;;;7398172;19;20129;-88
2023/04/07 20:40:18;;;;;;;0.20;0.20;;;;;;;;;;7397912;19;20148;-88
2023/04/07 20:42:45;;;;;;;0.30;0.30;;;;;;;;;;7399994;19;20169;-88
2023/04/07 20:45:12;;;;;;;0.20;0.20;;;;;;;;;;7396639;19;20153;-87
2023/04/07 20:47:39;;;;;;;0.20;0.20;;;;;;;;;;7398250;19;20165;-87
2023/04/07 20:50:07;;;;;;;0.20;0.20;;;;;;;;;;7401099;19;20137;-86
2023/04/07 20:52:38;;;;;;;0.20;0.20;;;;;;;;;;7398993;19;20141;-88
2023/04/07 20:55:08;;;;;;;0.40;0.40;;;;;;;;;;7396141;19;20160;-88
2023/04/07 20:57:36;;;;;;;0.20;0.20;;;;;;;;;;7399578;19;20133;-88
2023/04/07 21:00:04;;;;;;;0.20;0.20;;;;;;;;;;7399535;19;20129;-87
2023/04/07 21:02:31;;;;;;;0.40;0.40;;;;;;;;;;7398304;19;20165;-89
2023/04/07 21:04:58;;;;;;;0.20;0.20;;;;;;;;;;7397267;19;20180;-89
2023/04/07 21:07:25;;;;;;;0.20;0.20;;;;;;;;;;7396831;19;20201;-87
2023/04/07 21:09:51;;;;;;;0.87;0.87;;;;;;;;;;7399548;19;20342;-89
2023/04/07 21:12:18;;;;;;;0.30;0.30;;;;;;;;;;7396971;19;20589;-89
2023/04/07 21:14:45;;;;;;;0.20;0.20;;;;;;;;;;7393970;19;20728;-86
2023/04/07 21:17:11;;;;;;;0.20;0.20;;;;;;;;;;7397278;19;20197;-88
2023/04/07 21:19:38;;;;;;;0.20;0.20;;;;;;;;;;7396479;19;20169;-88
2023/04/07 21:22:04;;;;;;;0.97;0.97;;;;;;;;;;7398762;19;20176;-86
2023/04/07 21:24:31;;;;;;;0.27;0.27;;;;;;;;;;7396327;19;20170;-88
2023/04/07 21:26:58;;;;;;;0.20;0.20;;;;;;;;;;7398155;19;20140;-87
2023/04/07 21:29:28;;;;;;;0.20;0.20;;;;;;;;;;7398051;19;20136;-89
2023/04/07 21:31:54;;;;;;;0.30;0.30;;;;;;;;;;7398596;19;20152;-87
2023/04/07 21:34:21;;;;;;;0.20;0.20;;;;;;;;;;7396635;19;20157;-86
2023/04/07 21:36:47;;;;;;;1.27;1.27;;;;;;;;;;7398379;19;20463;-88
2023/04/07 21:39:14;;;;;;;0.27;0.27;;;;;;;;;;7397319;19;20140;-89
2023/04/07 21:41:41;;;;;;;0.20;0.20;;;;;;;;;;7399956;19;20145;-87
2023/04/07 21:44:09;;;;;;;0.20;0.20;;;;;;;;;;7397945;19;20164;-88
2023/04/07 21:46:39;;;;;;;0.20;0.20;;;;;;;;;;7393627;19;20134;-87
2023/04/07 21:49:06;;;;;;;0.20;0.20;;;;;;;;;;7397031;19;20174;-88
2023/04/07 21:51:33;;;;;;;0.20;0.20;;;;;;;;;;7397152;19;20144;-89
2023/04/07 21:54:00;;;;;;;0.30;0.30;;;;;;;;;;7392305;19;20518;-88
2023/04/07 21:56:26;;;;;;;0.20;0.20;;;;;;;;;;7411966;19;20129;-89
2023/04/07 21:58:54;;;;;;;0.40;0.40;;;;;;;;;;7402900;19;20162;-89
2023/04/07 22:01:21;;;;;;;0.30;0.30;;;;;;;;;;7401636;19;20161;-90
2023/04/07 22:03:48;;;;;;;0.20;0.20;;;;;;;;;;7394217;19;20559;-89
2023/04/07 22:06:14;;;;;;;0.20;0.20;;;;;;;;;;7394347;19;20482;-89
2023/04/07 22:08:41;;;;;;;3.80;1.30;;;;;;;;;;7393359;19;20166;-89
2023/04/07 22:11:26;;;;;;;0.20;0.20;;;;;;;;;;7394388;19;20166;-89
2023/04/07 22:13:52;;;;;;;0.20;0.20;;;;;;;;;;7392166;19;20157;-89
2023/04/07 22:16:19;;;;;;;0.20;0.20;;;;;;;;;;7393942;19;20125;-89
2023/04/07 22:18:45;;;;;;;0.20;0.20;;;;;;;;;;7392746;19;20152;-89
2023/04/07 22:21:12;;;;;;;0.20;0.20;;;;;;;;;;7393710;19;20176;-88
2023/04/07 22:23:39;;;;;;;0.23;0.23;;;;;;;;;;7389311;19;20149;-88
2023/04/07 22:26:06;;;;;;;0.50;0.50;;;;;;;;;;7393334;19;20174;-89
2023/04/07 22:28:32;;;;;;;0.27;0.27;;;;;;;;;;7391836;19;20141;-89
2023/04/07 22:31:00;;;;;;;0.20;0.20;;;;;;;;;;7393652;19;20144;-89
2023/04/07 22:33:26;;;;;;;0.20;0.20;;;;;;;;;;7399551;19;20157;-89
2023/04/07 22:35:53;;;;;;;0.20;0.20;;;;;;;;;;7422411;19;20137;-89
2023/04/07 22:38:21;;;;;;;0.20;0.20;;;;;;;;;;7421075;19;20158;-89
2023/04/07 22:40:48;;;;;;;0.20;0.20;;;;;;;;;;7421259;19;20144;-90
2023/04/07 22:43:15;;;;;;;0.30;0.30;;;;;;;;;;7421545;19;20141;-89
2023/04/07 22:45:41;;;;;;;0.20;0.20;;;;;;;;;;7406985;19;20764;-88
2023/04/07 22:48:08;;;;;;;0.67;0.67;;;;;;;;;;7391540;19;20613;-88
2023/04/07 22:50:34;;;;;;;0.20;0.20;;;;;;;;;;7398180;19;20141;-89
2023/04/07 22:53:01;;;;;;;0.30;0.30;;;;;;;;;;7395903;19;20141;-89
2023/04/07 22:55:28;;;;;;;0.27;0.27;;;;;;;;;;7402823;19;20141;-88
2023/04/07 22:57:55;;;;;;;0.20;0.20;;;;;;;;;;7406095;19;20169;-87
2023/04/07 23:00:21;;;;;;;0.30;0.30;;;;;;;;;;7404584;19;20165;-89
2023/04/07 23:02:48;;;;;;;0.27;0.27;;;;;;;;;;7402372;19;20145;-89
2023/04/07 23:05:15;;;;;;;0.20;0.20;;;;;;;;;;7401067;19;20180;-88
2023/04/07 23:07:42;;;;;;;0.40;0.40;;;;;;;;;;7401842;19;20145;-88
2023/04/07 23:10:09;;;;;;;0.20;0.20;;;;;;;;;;7401969;19;20162;-89
2023/04/07 23:12:36;;;;;;;0.30;0.30;;;;;;;;;;7403850;19;20175;-90
2023/04/07 23:15:03;;;;;;;0.20;0.20;;;;;;;;;;7401816;19;20160;-88
2023/04/07 23:17:30;;;;;;;0.27;0.27;;;;;;;;;;7404267;19;20137;-89
2023/04/07 23:19:57;;;;;;;0.20;0.20;;;;;;;;;;7400483;19;20137;-89
2023/04/07 23:22:23;;;;;;;0.20;0.20;;;;;;;;;;7404112;19;20469;-89
2023/04/07 23:24:50;;;;;;;0.20;0.20;;;;;;;;;;7399449;19;20502;-89
2023/04/07 23:27:17;;;;;;;0.37;0.37;;;;;;;;;;7403698;19;20177;-89
2023/04/07 23:29:43;;;;;;;0.40;0.40;;;;;;;;;;7402537;19;20129;-89
2023/04/07 23:32:10;;;;;;;0.30;0.30;;;;;;;;;;7394541;19;20170;-88
2023/04/07 23:34:37;;;;;;;0.20;0.20;;;;;;;;;;7391129;19;20154;-90
2023/04/07 23:37:04;;;;;;;0.20;0.20;;;;;;;;;;7395190;19;20140;-89
2023/04/07 23:39:30;;;;;;;0.53;0.50;;;;;;;;;;7395963;19;20129;-89
2023/04/07 23:41:57;;;;;;;0.20;0.20;;;;;;;;;;7394407;19;20516;-90
2023/04/07 23:44:24;;;;;;;0.20;0.20;;;;;;;;;;7395932;19;20185;-89
2023/04/07 23:46:50;;;;;;;0.20;0.20;;;;;;;;;;7396905;19;20157;-90
2023/04/07 23:49:17;;;;;;;0.20;0.20;;;;;;;;;;7391884;19;20734;-90
2023/04/07 23:51:45;;;;;;;0.20;0.20;;;;;;;;;;7395210;19;20169;-91
2023/04/07 23:54:11;;;;;;;0.20;0.20;;;;;;;;;;7392724;19;20168;-90
2023/04/07 23:56:38;;;;;;;0.20;0.20;;;;;;;;;;7394011;19;20133;-90
2023/04/07 23:59:05;;;;;;;0.20;0.20;;;;;;;;;;7390911;19;20137;-91
